sensor_id;sensor_type;location;lat;lon;timestamp;pressure;altitude;pressure_sealevel;temperature;humidity
71970;BME280;59838;52.152;5.436;2024-02-21T00:01:15;102202.31;;;8.93;100.00
71970;BME280;59838;52.152;5.436;2024-02-21T00:03:43;102202.44;;;8.91;100.00
71970;BME280;59838;52.152;5.436;2024-02-21T00:06:09;102194.81;;;8.90;100.00
71970;BME280;59838;52.152;5.436;2024-02-21T00:08:36;102184.56;;;8.88;100.00
71970;BME280;59838;52.152;5.436;2024-02-21T00:11:03;102178.59;;;8.88;100.00
71970;BME280;59838;52.152;5.436;2024-02-21T00:13:29;102175.44;;;8.84;100.00
71970;BME280;59838;52.152;5.436;2024-02-21T00:15:56;102165.50;;;8.80;100.00
71970;BME280;59838;52.152;5.436;2024-02-21T00:18:23;102160.44;;;8.78;100.00
71970;BME280;59838;52.152;5.436;2024-02-21T00:20:55;102168.22;;;8.78;100.00
71970;BME280;59838;52.152;5.436;2024-02-21T00:23:22;102160.44;;;8.78;100.00
71970;BME280;59838;52.152;5.436;2024-02-21T00:25:48;102171.75;;;8.77;100.00
71970;BME280;59838;52.152;5.436;2024-02-21T00:28:15;102169.19;;;8.77;100.00
71970;BME280;59838;52.152;5.436;2024-02-21T00:30:42;102168.22;;;8.78;100.00
71970;BME280;59838;52.152;5.436;2024-02-21T00:33:08;102179.41;;;8.78;100.00
71970;BME280;59838;52.152;5.436;2024-02-21T00:35:35;102172.56;;;8.77;100.00
71970;BME280;59838;52.152;5.436;2024-02-21T00:38:01;102166.72;;;8.75;100.00
71970;BME280;59838;52.152;5.436;2024-02-21T00:40:29;102157.16;;;8.76;100.00
71970;BME280;59838;52.152;5.436;2024-02-21T00:42:56;102159.63;;;8.77;100.00
71970;BME280;59838;52.152;5.436;2024-02-21T00:45:23;102154.44;;;8.77;100.00
71970;BME280;59838;52.152;5.436;2024-02-21T00:47:49;102157.88;;;8.78;100.00
71970;BME280;59838;52.152;5.436;2024-02-21T00:50:16;102166.44;;;8.78;100.00
71970;BME280;59838;52.152;5.436;2024-02-21T00:52:43;102163.03;;;8.78;100.00
71970;BME280;59838;52.152;5.436;2024-02-21T00:55:10;102180.22;;;8.79;100.00
71970;BME280;59838;52.152;5.436;2024-02-21T00:57:37;102170.81;;;8.78;100.00
71970;BME280;59838;52.152;5.436;2024-02-21T01:00:04;102172.56;;;8.77;100.00
71970;BME280;59838;52.152;5.436;2024-02-21T01:02:31;102179.41;;;8.78;100.00
71970;BME280;59838;52.152;5.436;2024-02-21T01:04:58;102182.94;;;8.77;100.00
71970;BME280;59838;52.152;5.436;2024-02-21T01:07:24;102186.38;;;8.78;100.00
71970;BME280;59838;52.152;5.436;2024-02-21T01:09:51;102183.78;;;8.78;100.00
71970;BME280;59838;52.152;5.436;2024-02-21T01:12:18;102176.00;;;8.78;100.00
71970;BME280;59838;52.152;5.436;2024-02-21T01:14:44;102170.69;;;8.80;100.00
71970;BME280;59838;52.152;5.436;2024-02-21T01:17:13;102168.91;;;8.80;100.00
71970;BME280;59838;52.152;5.436;2024-02-21T01:19:39;102161.25;;;8.78;100.00
71970;BME280;59838;52.152;5.436;2024-02-21T01:22:06;102167.25;;;8.79;100.00
71970;BME280;59838;52.152;5.436;2024-02-21T01:24:32;102159.34;;;8.81;100.00
71970;BME280;59838;52.152;5.436;2024-02-21T01:26:59;102162.75;;;8.81;100.00
71970;BME280;59838;52.152;5.436;2024-02-21T01:29:25;102159.22;;;8.82;100.00
71970;BME280;59838;52.152;5.436;2024-02-21T01:31:52;102154.97;;;8.81;100.00
71970;BME280;59838;52.152;5.436;2024-02-21T01:34:18;102158.41;;;8.82;100.00
71970;BME280;59838;52.152;5.436;2024-02-21T01:36:45;102157.56;;;8.81;100.00
71970;BME280;59838;52.152;5.436;2024-02-21T01:39:11;102144.59;;;8.81;100.00
71970;BME280;59838;52.152;5.436;2024-02-21T01:41:38;102139.41;;;8.81;100.00
71970;BME280;59838;52.152;5.436;2024-02-21T01:44:04;102132.63;;;8.80;100.00
71970;BME280;59838;52.152;5.436;2024-02-21T01:46:31;102128.25;;;8.81;100.00
71970;BME280;59838;52.152;5.436;2024-02-21T01:48:58;102114.47;;;8.80;100.00
71970;BME280;59838;52.152;5.436;2024-02-21T01:51:25;102111.88;;;8.80;100.00
71970;BME280;59838;52.152;5.436;2024-02-21T01:53:53;102110.91;;;8.81;100.00
71970;BME280;59838;52.152;5.436;2024-02-21T01:56:21;102104.78;;;8.82;100.00
71970;BME280;59838;52.152;5.436;2024-02-21T01:58:48;102114.22;;;8.83;100.00
71970;BME280;59838;52.152;5.436;2024-02-21T02:01:16;102116.81;;;8.83;100.00
71970;BME280;59838;52.152;5.436;2024-02-21T02:03:48;102110.78;;;8.83;100.00
71970;BME280;59838;52.152;5.436;2024-02-21T02:06:15;102114.34;;;8.82;100.00
71970;BME280;59838;52.152;5.436;2024-02-21T02:08:42;102108.31;;;8.81;100.00
71970;BME280;59838;52.152;5.436;2024-02-21T02:11:09;102105.72;;;8.81;100.00
71970;BME280;59838;52.152;5.436;2024-02-21T02:13:36;102093.47;;;8.83;100.00
71970;BME280;59838;52.152;5.436;2024-02-21T02:16:03;102093.63;;;8.82;100.00
71970;BME280;59838;52.152;5.436;2024-02-21T02:18:30;102091.84;;;8.82;100.00
71970;BME280;59838;52.152;5.436;2024-02-21T02:20:56;102086.78;;;8.81;100.00
71970;BME280;59838;52.152;5.436;2024-02-21T02:23:30;102082.41;;;8.81;100.00
71970;BME280;59838;52.152;5.436;2024-02-21T02:26:00;102076.41;;;8.81;100.00
71970;BME280;59838;52.152;5.436;2024-02-21T02:28:30;102081.59;;;8.81;100.00
71970;BME280;59838;52.152;5.436;2024-02-21T02:30:56;102085.84;;;8.82;100.00
71970;BME280;59838;52.152;5.436;2024-02-21T02:33:23;102075.63;;;8.80;100.00
71970;BME280;59838;52.152;5.436;2024-02-21T02:35:50;102082.59;;;8.80;100.00
71970;BME280;59838;52.152;5.436;2024-02-21T02:38:16;102077.53;;;8.78;100.00
71970;BME280;59838;52.152;5.436;2024-02-21T02:40:43;102073.16;;;8.78;100.00
71970;BME280;59838;52.152;5.436;2024-02-21T02:43:10;102072.22;;;8.80;100.00
71970;BME280;59838;52.152;5.436;2024-02-21T02:45:36;102079.00;;;8.81;100.00
71970;BME280;59838;52.152;5.436;2024-02-21T02:48:03;102072.22;;;8.80;100.00
71970;BME280;59838;52.152;5.436;2024-02-21T02:50:30;102082.72;;;8.78;100.00
71970;BME280;59838;52.152;5.436;2024-02-21T02:52:57;102072.34;;;8.78;100.00
71970;BME280;59838;52.152;5.436;2024-02-21T02:55:24;102072.34;;;8.78;100.00
71970;BME280;59838;52.152;5.436;2024-02-21T02:57:52;102063.88;;;8.76;100.00
71970;BME280;59838;52.152;5.436;2024-02-21T03:00:19;102048.34;;;8.76;100.00
71970;BME280;59838;52.152;5.436;2024-02-21T03:02:46;102055.16;;;8.77;100.00
71970;BME280;59838;52.152;5.436;2024-02-21T03:05:19;102041.25;;;8.78;100.00
71970;BME280;59838;52.152;5.436;2024-02-21T03:07:47;102046.44;;;8.78;100.00
71970;BME280;59838;52.152;5.436;2024-02-21T03:10:14;102037.84;;;8.77;100.00
71970;BME280;59838;52.152;5.436;2024-02-21T03:12:45;102039.63;;;8.77;100.00
71970;BME280;59838;52.152;5.436;2024-02-21T03:15:13;102035.25;;;8.77;100.00
71970;BME280;59838;52.152;5.436;2024-02-21T03:17:40;102035.38;;;8.76;100.00
71970;BME280;59838;52.152;5.436;2024-02-21T03:20:08;102035.38;;;8.76;100.00
71970;BME280;59838;52.152;5.436;2024-02-21T03:22:37;102028.59;;;8.75;100.00
71970;BME280;59838;52.152;5.436;2024-02-21T03:25:04;102029.38;;;8.75;100.00
71970;BME280;59838;52.152;5.436;2024-02-21T03:27:31;102024.22;;;8.75;100.00
71970;BME280;59838;52.152;5.436;2024-02-21T03:29:57;102021.63;;;8.75;100.00
71970;BME280;59838;52.152;5.436;2024-02-21T03:32:24;102013.97;;;8.74;100.00
71970;BME280;59838;52.152;5.436;2024-02-21T03:34:50;102008.81;;;8.74;100.00
71970;BME280;59838;52.152;5.436;2024-02-21T03:37:17;102004.56;;;8.73;100.00
71970;BME280;59838;52.152;5.436;2024-02-21T03:39:43;102001.16;;;8.72;100.00
71970;BME280;59838;52.152;5.436;2024-02-21T03:42:10;101999.38;;;8.73;100.00
71970;BME280;59838;52.152;5.436;2024-02-21T03:44:36;101995.19;;;8.72;100.00
71970;BME280;59838;52.152;5.436;2024-02-21T03:47:03;101988.34;;;8.71;100.00
71970;BME280;59838;52.152;5.436;2024-02-21T03:49:29;101983.97;;;8.71;100.00
71970;BME280;59838;52.152;5.436;2024-02-21T03:51:56;101986.75;;;8.70;100.00
71970;BME280;59838;52.152;5.436;2024-02-21T03:54:22;101989.47;;;8.68;100.00
71970;BME280;59838;52.152;5.436;2024-02-21T03:56:49;101992.06;;;8.68;100.00
71970;BME280;59838;52.152;5.436;2024-02-21T03:59:16;101991.22;;;8.68;100.00
71970;BME280;59838;52.152;5.436;2024-02-21T04:01:42;101990.41;;;8.67;100.00
71970;BME280;59838;52.152;5.436;2024-02-21T04:04:10;101991.38;;;8.66;100.00
71970;BME280;59838;52.152;5.436;2024-02-21T04:06:38;101993.97;;;8.66;100.00
71970;BME280;59838;52.152;5.436;2024-02-21T04:09:12;101989.75;;;8.65;100.00
71970;BME280;59838;52.152;5.436;2024-02-21T04:11:38;101988.91;;;8.65;100.00
71970;BME280;59838;52.152;5.436;2024-02-21T04:14:04;101986.47;;;8.63;100.00
71970;BME280;59838;52.152;5.436;2024-02-21T04:16:31;101983.06;;;8.63;100.00
71970;BME280;59838;52.152;5.436;2024-02-21T04:18:57;101984.00;;;8.62;100.00
71970;BME280;59838;52.152;5.436;2024-02-21T04:21:24;101972.03;;;8.60;100.00
71970;BME280;59838;52.152;5.436;2024-02-21T04:23:51;101971.06;;;8.62;100.00
71970;BME280;59838;52.152;5.436;2024-02-21T04:26:17;101973.66;;;8.62;100.00
71970;BME280;59838;52.152;5.436;2024-02-21T04:28:45;101965.06;;;8.61;100.00
71970;BME280;59838;52.152;5.436;2024-02-21T04:31:11;101964.25;;;8.60;100.00
71970;BME280;59838;52.152;5.436;2024-02-21T04:33:38;101965.22;;;8.59;100.00
71970;BME280;59838;52.152;5.436;2024-02-21T04:36:05;101971.19;;;8.60;100.00
71970;BME280;59838;52.152;5.436;2024-02-21T04:38:31;101961.00;;;8.58;100.00
71970;BME280;59838;52.152;5.436;2024-02-21T04:40:58;101963.75;;;8.57;100.00
71970;BME280;59838;52.152;5.436;2024-02-21T04:43:25;101955.81;;;8.58;100.00
71970;BME280;59838;52.152;5.436;2024-02-21T04:45:51;101955.81;;;8.58;100.00
71970;BME280;59838;52.152;5.436;2024-02-21T04:48:19;101943.00;;;8.57;100.00
71970;BME280;59838;52.152;5.436;2024-02-21T04:50:46;101937.84;;;8.57;100.00
71970;BME280;59838;52.152;5.436;2024-02-21T04:53:13;101935.38;;;8.55;100.00
71970;BME280;59838;52.152;5.436;2024-02-21T04:55:40;101933.75;;;8.54;100.00
71970;BME280;59838;52.152;5.436;2024-02-21T04:58:07;101939.88;;;8.53;100.00
71970;BME280;59838;52.152;5.436;2024-02-21T05:00:34;101935.53;;;8.54;100.00
71970;BME280;59838;52.152;5.436;2024-02-21T05:03:00;101936.34;;;8.54;100.00
71970;BME280;59838;52.152;5.436;2024-02-21T05:05:28;101935.53;;;8.54;100.00
71970;BME280;59838;52.152;5.436;2024-02-21T05:07:55;101938.91;;;8.54;100.00
71970;BME280;59838;52.152;5.436;2024-02-21T05:10:21;101938.13;;;8.54;100.00
71970;BME280;59838;52.152;5.436;2024-02-21T05:12:48;101944.09;;;8.54;100.00
71970;BME280;59838;52.152;5.436;2024-02-21T05:15:14;101934.69;;;8.53;100.00
71970;BME280;59838;52.152;5.436;2024-02-21T05:17:41;101931.16;;;8.54;100.00
71970;BME280;59838;52.152;5.436;2024-02-21T05:20:09;101925.84;;;8.56;100.00
71970;BME280;59838;52.152;5.436;2024-02-21T05:22:35;101909.47;;;8.55;100.00
71970;BME280;59838;52.152;5.436;2024-02-21T05:25:02;101904.31;;;8.55;100.00
71970;BME280;59838;52.152;5.436;2024-02-21T05:27:28;101899.25;;;8.54;100.00
71970;BME280;59838;52.152;5.436;2024-02-21T05:29:55;101900.88;;;8.55;100.00
71970;BME280;59838;52.152;5.436;2024-02-21T05:32:21;101896.69;;;8.54;100.00
71970;BME280;59838;52.152;5.436;2024-02-21T05:34:48;101893.25;;;8.53;100.00
71970;BME280;59838;52.152;5.436;2024-02-21T05:37:16;101893.38;;;8.52;100.00
71970;BME280;59838;52.152;5.436;2024-02-21T05:39:42;101882.88;;;8.53;100.00
71970;BME280;59838;52.152;5.436;2024-02-21T05:42:09;101877.03;;;8.51;100.00
71970;BME280;59838;52.152;5.436;2024-02-21T05:44:35;101877.19;;;8.50;100.00
71970;BME280;59838;52.152;5.436;2024-02-21T05:47:01;101883.16;;;8.50;100.00
71970;BME280;59838;52.152;5.436;2024-02-21T05:49:28;101869.56;;;8.48;100.00
71970;BME280;59838;52.152;5.436;2024-02-21T05:51:54;101861.66;;;8.50;100.00
71970;BME280;59838;52.152;5.436;2024-02-21T05:54:21;101855.81;;;8.48;100.00
71970;BME280;59838;52.152;5.436;2024-02-21T05:56:47;101860.00;;;8.49;100.00
71970;BME280;59838;52.152;5.436;2024-02-21T05:59:14;101855.00;;;8.47;100.00
71970;BME280;59838;52.152;5.436;2024-02-21T06:01:40;101859.19;;;8.48;100.00
71970;BME280;59838;52.152;5.436;2024-02-21T06:04:07;101855.13;;;8.46;100.00
71970;BME280;59838;52.152;5.436;2024-02-21T06:06:34;101844.78;;;8.46;100.00
71970;BME280;59838;52.152;5.436;2024-02-21T06:09:00;101850.75;;;8.46;100.00
71970;BME280;59838;52.152;5.436;2024-02-21T06:11:29;101845.59;;;8.46;100.00
71970;BME280;59838;52.152;5.436;2024-02-21T06:13:56;101840.41;;;8.46;100.00
71970;BME280;59838;52.152;5.436;2024-02-21T06:16:22;101837.81;;;8.46;100.00
71970;BME280;59838;52.152;5.436;2024-02-21T06:18:49;101837.81;;;8.46;100.00
71970;BME280;59838;52.152;5.436;2024-02-21T06:21:15;101834.28;;;8.47;100.00
71970;BME280;59838;52.152;5.436;2024-02-21T06:23:43;101846.41;;;8.47;100.00
71970;BME280;59838;52.152;5.436;2024-02-21T06:26:09;101843.00;;;8.46;100.00
71970;BME280;59838;52.152;5.436;2024-02-21T06:28:36;101847.22;;;8.47;100.00
71970;BME280;59838;52.152;5.436;2024-02-21T06:31:03;101847.38;;;8.46;100.00
71970;BME280;59838;52.152;5.436;2024-02-21T06:33:29;101844.63;;;8.47;100.00
71970;BME280;59838;52.152;5.436;2024-02-21T06:35:56;101848.19;;;8.46;100.00
71970;BME280;59838;52.152;5.436;2024-02-21T06:38:23;101851.72;;;8.45;100.00
71970;BME280;59838;52.152;5.436;2024-02-21T06:40:50;101857.88;;;8.44;100.00
71970;BME280;59838;52.152;5.436;2024-02-21T06:43:19;101852.94;;;8.41;100.00
71970;BME280;59838;52.152;5.436;2024-02-21T06:45:46;101848.72;;;8.40;100.00
71970;BME280;59838;52.152;5.436;2024-02-21T06:48:19;101860.00;;;8.39;100.00
71970;BME280;59838;52.152;5.436;2024-02-21T06:50:46;101848.03;;;8.38;100.00
71970;BME280;59838;52.152;5.436;2024-02-21T06:53:13;101848.31;;;8.35;100.00
71970;BME280;59838;52.152;5.436;2024-02-21T06:55:39;101841.38;;;8.35;100.00
71970;BME280;59838;52.152;5.436;2024-02-21T06:58:06;101841.50;;;8.34;100.00
71970;BME280;59838;52.152;5.436;2024-02-21T07:00:35;101838.91;;;8.34;100.00
71970;BME280;59838;52.152;5.436;2024-02-21T07:03:01;101831.16;;;8.34;100.00
71970;BME280;59838;52.152;5.436;2024-02-21T07:05:28;101827.75;;;8.33;100.00
71970;BME280;59838;52.152;5.436;2024-02-21T07:07:55;101833.88;;;8.32;100.00
71970;BME280;59838;52.152;5.436;2024-02-21T07:10:22;101828.69;;;8.32;100.00
71970;BME280;59838;52.152;5.436;2024-02-21T07:12:49;101832.13;;;8.33;100.00
71970;BME280;59838;52.152;5.436;2024-02-21T07:15:15;101827.91;;;8.32;100.00
71970;BME280;59838;52.152;5.436;2024-02-21T07:17:42;101827.09;;;8.31;100.00
71970;BME280;59838;52.152;5.436;2024-02-21T07:20:08;101820.13;;;8.32;100.00
71970;BME280;59838;52.152;5.436;2024-02-21T07:22:35;101820.13;;;8.32;100.00
71970;BME280;59838;52.152;5.436;2024-02-21T07:25:02;101821.91;;;8.31;100.00
71970;BME280;59838;52.152;5.436;2024-02-21T07:27:31;101814.94;;;8.32;100.00
71970;BME280;59838;52.152;5.436;2024-02-21T07:29:59;101819.31;;;8.31;100.00
71970;BME280;59838;52.152;5.436;2024-02-21T07:32:26;101808.13;;;8.31;100.00
71970;BME280;59838;52.152;5.436;2024-02-21T07:34:52;101813.16;;;8.32;100.00
71970;BME280;59838;52.152;5.436;2024-02-21T07:37:19;101804.75;;;8.30;100.00
71970;BME280;59838;52.152;5.436;2024-02-21T07:39:46;101802.81;;;8.32;100.00
71970;BME280;59838;52.152;5.436;2024-02-21T07:42:13;101794.09;;;8.33;100.00
71970;BME280;59838;52.152;5.436;2024-02-21T07:44:40;101785.53;;;8.33;100.00
71970;BME280;59838;52.152;5.436;2024-02-21T07:47:06;101783.75;;;8.33;100.00
71970;BME280;59838;52.152;5.436;2024-02-21T07:49:40;101773.25;;;8.35;100.00
71970;BME280;59838;52.152;5.436;2024-02-21T07:52:07;101769.56;;;8.37;100.00
71970;BME280;59838;52.152;5.436;2024-02-21T07:54:34;101760.66;;;8.40;100.00
71970;BME280;59838;52.152;5.436;2024-02-21T07:57:00;101757.28;;;8.39;100.00
71970;BME280;59838;52.152;5.436;2024-02-21T07:59:26;101743.94;;;8.44;100.00
71970;BME280;59838;52.152;5.436;2024-02-21T08:01:58;101741.84;;;8.48;100.00
71970;BME280;59838;52.152;5.436;2024-02-21T08:04:25;101746.06;;;8.49;100.00
71970;BME280;59838;52.152;5.436;2024-02-21T08:06:52;101752.72;;;8.51;100.00
71970;BME280;59838;52.152;5.436;2024-02-21T08:09:19;101754.50;;;8.51;100.00
71970;BME280;59838;52.152;5.436;2024-02-21T08:11:46;101750.00;;;8.53;100.00
71970;BME280;59838;52.152;5.436;2024-02-21T08:14:12;101744.66;;;8.54;100.00
71970;BME280;59838;52.152;5.436;2024-02-21T08:16:45;101736.59;;;8.57;100.00
71970;BME280;59838;52.152;5.436;2024-02-21T08:19:12;101736.31;;;8.60;100.00
71970;BME280;59838;52.152;5.436;2024-02-21T08:21:38;101736.03;;;8.64;100.00
71970;BME280;59838;52.152;5.436;2024-02-21T08:24:05;101737.34;;;8.68;100.00
71970;BME280;59838;52.152;5.436;2024-02-21T08:26:32;101725.75;;;8.72;100.00
71970;BME280;59838;52.152;5.436;2024-02-21T08:28:59;101727.66;;;8.70;100.00
71970;BME280;59838;52.152;5.436;2024-02-21T08:31:27;101728.03;;;8.75;100.00
71970;BME280;59838;52.152;5.436;2024-02-21T08:34:00;101721.88;;;8.76;100.00
71970;BME280;59838;52.152;5.436;2024-02-21T08:36:31;101704.44;;;8.78;100.00
71970;BME280;59838;52.152;5.436;2024-02-21T08:38:59;101712.84;;;8.80;100.00
71970;BME280;59838;52.152;5.436;2024-02-21T08:41:26;101706.03;;;8.79;100.00
71970;BME280;59838;52.152;5.436;2024-02-21T08:44:13;101710.13;;;8.82;100.00
71970;BME280;59838;52.152;5.436;2024-02-21T08:46:39;101699.31;;;8.86;100.00
71970;BME280;59838;52.152;5.436;2024-02-21T08:49:06;101687.81;;;8.89;100.00
71970;BME280;59838;52.152;5.436;2024-02-21T08:51:33;101677.31;;;8.90;100.00
71970;BME280;59838;52.152;5.436;2024-02-21T08:54:00;101676.19;;;8.93;100.00
71970;BME280;59838;52.152;5.436;2024-02-21T08:56:27;101676.03;;;8.94;100.00
71970;BME280;59838;52.152;5.436;2024-02-21T08:58:56;101671.53;;;8.96;100.00
71970;BME280;59838;52.152;5.436;2024-02-21T09:01:24;101675.75;;;8.98;100.00
71970;BME280;59838;52.152;5.436;2024-02-21T09:03:50;101677.22;;;9.00;100.00
71970;BME280;59838;52.152;5.436;2024-02-21T09:06:20;101682.91;;;9.04;100.00
71970;BME280;59838;52.152;5.436;2024-02-21T09:08:46;101672.53;;;9.04;100.00
71970;BME280;59838;52.152;5.436;2024-02-21T09:11:13;101679.06;;;9.08;100.00
71970;BME280;59838;52.152;5.436;2024-02-21T09:13:39;101677.13;;;9.10;100.00
71970;BME280;59838;52.152;5.436;2024-02-21T09:16:06;101660.16;;;9.15;100.00
71970;BME280;59838;52.152;5.436;2024-02-21T09:18:32;101661.59;;;9.18;100.00
71970;BME280;59838;52.152;5.436;2024-02-21T09:20:59;101663.91;;;9.21;100.00
71970;BME280;59838;52.152;5.436;2024-02-21T09:23:26;101656.81;;;9.23;100.00
71970;BME280;59838;52.152;5.436;2024-02-21T09:25:53;101652.88;;;9.19;100.00
71970;BME280;59838;52.152;5.436;2024-02-21T09:28:22;101644.28;;;9.19;100.00
71970;BME280;59838;52.152;5.436;2024-02-21T09:30:49;101641.56;;;9.20;100.00
71970;BME280;59838;52.152;5.436;2024-02-21T09:33:15;101635.22;;;9.23;100.00
71970;BME280;59838;52.152;5.436;2024-02-21T09:35:57;101629.88;;;9.24;100.00
71970;BME280;59838;52.152;5.436;2024-02-21T09:38:23;101622.91;;;9.25;100.00
71970;BME280;59838;52.152;5.436;2024-02-21T09:40:59;101618.25;;;9.28;100.00
71970;BME280;59838;52.152;5.436;2024-02-21T09:43:28;101603.03;;;9.33;100.00
71970;BME280;59838;52.152;5.436;2024-02-21T09:45:58;101610.66;;;9.35;100.00
71970;BME280;59838;52.152;5.436;2024-02-21T09:48:46;101601.75;;;9.38;100.00
71970;BME280;59838;52.152;5.436;2024-02-21T09:51:17;101594.97;;;9.37;100.00
71970;BME280;59838;52.152;5.436;2024-02-21T09:53:45;101591.22;;;9.39;100.00
71970;BME280;59838;52.152;5.436;2024-02-21T09:56:27;101578.56;;;9.36;100.00
71970;BME280;59838;52.152;5.436;2024-02-21T09:58:54;101574.84;;;9.39;100.00
71970;BME280;59838;52.152;5.436;2024-02-21T10:01:22;101572.25;;;9.39;100.00
71970;BME280;59838;52.152;5.436;2024-02-21T10:04:00;101565.13;;;9.41;100.00
71970;BME280;59838;52.152;5.436;2024-02-21T10:06:29;101558.19;;;9.41;100.00
71970;BME280;59838;52.152;5.436;2024-02-21T10:08:56;101554.13;;;9.47;100.00
71970;BME280;59838;52.152;5.436;2024-02-21T10:11:26;101547.00;;;9.49;100.00
71970;BME280;59838;52.152;5.436;2024-02-21T10:14:06;101539.38;;;9.47;100.00
71970;BME280;59838;52.152;5.436;2024-02-21T10:16:33;101541.50;;;9.52;100.00
71970;BME280;59838;52.152;5.436;2024-02-21T10:19:00;101528.38;;;9.54;100.00
71970;BME280;59838;52.152;5.436;2024-02-21T10:21:27;101528.06;;;9.57;100.00
71970;BME280;59838;52.152;5.436;2024-02-21T10:23:53;101522.41;;;9.61;100.00
71970;BME280;59838;52.152;5.436;2024-02-21T10:26:20;101516.75;;;9.66;100.00
71970;BME280;59838;52.152;5.436;2024-02-21T10:28:47;101514.16;;;9.74;100.00
71970;BME280;59838;52.152;5.436;2024-02-21T10:31:23;101509.13;;;9.81;100.00
71970;BME280;59838;52.152;5.436;2024-02-21T10:33:58;101498.75;;;9.89;100.00
71970;BME280;59838;52.152;5.436;2024-02-21T10:36:25;101490.34;;;9.95;100.00
71970;BME280;59838;52.152;5.436;2024-02-21T10:38:53;101487.09;;;10.01;100.00
71970;BME280;59838;52.152;5.436;2024-02-21T10:41:21;101486.78;;;10.04;100.00
71970;BME280;59838;52.152;5.436;2024-02-21T10:43:53;101488.06;;;10.09;100.00
71970;BME280;59838;52.152;5.436;2024-02-21T10:46:22;101474.44;;;10.06;100.00
71970;BME280;59838;52.152;5.436;2024-02-21T10:49:03;101467.44;;;10.07;100.00
71970;BME280;59838;52.152;5.436;2024-02-21T10:51:34;101468.91;;;10.01;100.00
71970;BME280;59838;52.152;5.436;2024-02-21T10:54:30;101458.69;;;10.00;100.00
71970;BME280;59838;52.152;5.436;2024-02-21T10:57:02;101453.03;;;9.96;100.00
71970;BME280;59838;52.152;5.436;2024-02-21T10:59:31;101436.63;;;9.96;100.00
71970;BME280;59838;52.152;5.436;2024-02-21T11:01:58;101418.28;;;9.97;100.00
71970;BME280;59838;52.152;5.436;2024-02-21T11:04:26;101401.41;;;10.10;100.00
71970;BME280;59838;52.152;5.436;2024-02-21T11:06:54;101383.22;;;10.18;100.00
71970;BME280;59838;52.152;5.436;2024-02-21T11:09:29;101381.25;;;10.20;100.00
71970;BME280;59838;52.152;5.436;2024-02-21T11:11:57;101379.97;;;10.24;100.00
71970;BME280;59838;52.152;5.436;2024-02-21T11:14:26;101388.56;;;10.24;100.00
71970;BME280;59838;52.152;5.436;2024-02-21T11:16:53;101447.81;;;10.13;100.00
71970;BME280;59838;52.152;5.436;2024-02-21T11:19:28;101447.69;;;9.98;100.00
71970;BME280;59838;52.152;5.436;2024-02-21T11:21:56;101446.53;;;9.84;100.00
71970;BME280;59838;52.152;5.436;2024-02-21T11:24:33;101435.19;;;9.77;100.00
71970;BME280;59838;52.152;5.436;2024-02-21T11:27:12;101443.28;;;9.74;100.00
71970;BME280;59838;52.152;5.436;2024-02-21T11:29:47;101417.00;;;9.68;100.00
71970;BME280;59838;52.152;5.436;2024-02-21T11:32:15;101426.41;;;9.61;100.00
71970;BME280;59838;52.152;5.436;2024-02-21T11:34:59;101419.75;;;9.59;100.00
71970;BME280;59838;52.152;5.436;2024-02-21T11:37:32;101415.72;;;9.56;100.00
71970;BME280;59838;52.152;5.436;2024-02-21T11:40:04;101411.81;;;9.52;100.00
71970;BME280;59838;52.152;5.436;2024-02-21T11:42:33;101397.88;;;9.53;100.00
71970;BME280;59838;52.152;5.436;2024-02-21T11:45:00;101388.63;;;9.50;100.00
71970;BME280;59838;52.152;5.436;2024-02-21T11:47:30;101373.72;;;9.44;100.00
71970;BME280;59838;52.152;5.436;2024-02-21T11:49:57;101372.91;;;9.44;100.00
71970;BME280;59838;52.152;5.436;2024-02-21T11:52:25;101363.16;;;9.46;100.00
71970;BME280;59838;52.152;5.436;2024-02-21T11:54:53;101363.69;;;9.41;100.00
71970;BME280;59838;52.152;5.436;2024-02-21T11:57:21;101367.22;;;9.40;100.00
71970;BME280;59838;52.152;5.436;2024-02-21T11:59:48;101352.47;;;9.41;100.00
71970;BME280;59838;52.152;5.436;2024-02-21T12:02:18;101323.47;;;9.45;100.00
71970;BME280;59838;52.152;5.436;2024-02-21T12:04:45;101309.03;;;9.59;100.00
71970;BME280;59838;52.152;5.436;2024-02-21T12:07:12;101296.97;;;9.83;100.00
71970;BME280;59838;52.152;5.436;2024-02-21T12:09:41;101284.16;;;9.98;100.00
71970;BME280;59838;52.152;5.436;2024-02-21T12:12:08;101261.72;;;10.05;100.00
71970;BME280;59838;52.152;5.436;2024-02-21T12:14:35;101253.69;;;10.23;100.00
71970;BME280;59838;52.152;5.436;2024-02-21T12:17:02;101248.78;;;10.36;100.00
71970;BME280;59838;52.152;5.436;2024-02-21T12:19:33;101245.78;;;10.48;100.00
71970;BME280;59838;52.152;5.436;2024-02-21T12:22:01;101235.19;;;10.57;100.00
71970;BME280;59838;52.152;5.436;2024-02-21T12:24:32;101244.03;;;10.71;100.00
71970;BME280;59838;52.152;5.436;2024-02-21T12:26:58;101234.59;;;10.70;100.00
71970;BME280;59838;52.152;5.436;2024-02-21T12:29:26;101238.50;;;10.74;100.00
71970;BME280;59838;52.152;5.436;2024-02-21T12:31:53;101223.75;;;10.67;100.00
71970;BME280;59838;52.152;5.436;2024-02-21T12:34:21;101206.72;;;10.64;100.00
71970;BME280;59838;52.152;5.436;2024-02-21T12:37:04;101197.66;;;10.60;100.00
71970;BME280;59838;52.152;5.436;2024-02-21T12:39:30;101190.84;;;10.59;100.00
71970;BME280;59838;52.152;5.436;2024-02-21T12:41:58;101182.41;;;10.57;100.00
71970;BME280;59838;52.152;5.436;2024-02-21T12:44:25;101169.44;;;10.57;100.00
71970;BME280;59838;52.152;5.436;2024-02-21T12:46:51;101171.13;;;10.50;100.00
71970;BME280;59838;52.152;5.436;2024-02-21T12:49:20;101172.25;;;10.47;100.00
71970;BME280;59838;52.152;5.436;2024-02-21T12:51:47;101154.34;;;10.52;100.00